Time;durP1;ratioP1;P1;durP2;ratioP2;P2;SDS_P1;SDS_P2;PMS_P1;PMS_P2;Temp;Humidity;BMP_temperature;BMP_pressure;BME280_temperature;BME280_humidity;BME280_pressure;Samples;Min_cycle;Max_cycle;Signal;HPM_P1;HPM_P2
2021/10/28 00:14:29;;;;;;;;;;;;;;;11.21;76.22;100349.22;5034210;28;19924;-63
2021/10/28 00:17:18;;;;;;;;;;;;;;;11.21;76.20;100338.84;5033373;28;19924;-62
2021/10/28 00:20:05;;;;;;;;;;;;;;;11.20;76.09;100343.16;5033632;28;19984;-62
2021/10/28 00:22:50;;;;;;;;;;;;;;;11.20;76.15;100337.09;5032708;28;19924;-63
2021/10/28 00:25:34;;;;;;;;;;;;;;;11.21;75.75;100338.84;5033493;28;20400;-63
2021/10/28 00:28:18;;;;;;;;;;;;;;;11.21;76.12;100344.91;5033385;28;19963;-63
2021/10/28 00:31:03;;;;;;;;;;;;;;;11.21;76.07;100350.09;5033891;28;19924;-62
2021/10/28 00:33:49;;;;;;;;;;;;;;;11.22;75.83;100336.28;5033038;28;19963;-62
2021/10/28 00:36:34;;;;;;;;;;;;;;;11.21;75.67;100346.66;5033978;28;20334;-62
2021/10/28 00:39:18;;;;;;;;;;;;;;;11.22;76.26;100336.28;5047065;28;19924;-62
2021/10/28 00:42:03;;;;;;;;;;;;;;;11.23;76.16;100347.50;5033253;28;20449;-63
2021/10/28 00:44:47;;;;;;;;;;;;;;;11.23;76.13;100330.25;5032685;28;19967;-63
2021/10/28 00:47:34;;;;;;;;;;;;;;;11.23;75.94;100334.53;5033581;28;19967;-62
2021/10/28 00:50:18;;;;;;;;;;;;;;;11.21;75.84;100329.34;5032924;28;19924;-63
2021/10/28 00:53:03;;;;;;;;;;;;;;;11.21;76.06;100337.13;5033934;28;20370;-62
2021/10/28 00:55:47;;;;;;;;;;;;;;;11.21;75.66;100334.53;5032859;28;19947;-63
2021/10/28 00:58:32;;;;;;;;;;;;;;;11.22;75.81;100331.09;5033607;28;20002;-63
2021/10/28 01:01:15;;;;;;;;;;;;;;;11.20;75.81;100332.78;5032674;28;19955;-62
2021/10/28 01:03:59;;;;;;;;;;;;;;;11.19;75.66;100330.16;5037770;28;19924;-63
2021/10/28 01:06:47;;;;;;;;;;;;;;;11.16;76.10;100341.34;5036826;28;20419;-63
2021/10/28 01:09:34;;;;;;;;;;;;;;;11.16;75.81;100330.97;5036823;28;19924;-62
2021/10/28 01:12:19;;;;;;;;;;;;;;;11.17;76.04;100329.25;5050931;28;19963;-63
2021/10/28 01:15:10;;;;;;;;;;;;;;;11.17;75.93;100326.66;5036903;28;19939;-63
2021/10/28 01:17:54;;;;;;;;;;;;;;;11.16;75.96;100311.94;5037158;28;19953;-62
2021/10/28 01:20:41;;;;;;;;;;;;;;;11.16;75.95;100318.00;5036778;28;20043;-62
2021/10/28 01:23:26;;;;;;;;;;;;;;;11.17;75.70;100321.47;5036302;28;19924;-63
2021/10/28 01:26:11;;;;;;;;;;;;;;;11.17;76.00;100316.28;5037525;28;19940;-63
2021/10/28 01:28:58;;;;;;;;;;;;;;;11.18;76.16;100311.13;5037147;28;19924;-63
2021/10/28 01:31:44;;;;;;;;;;;;;;;11.19;75.76;100310.28;5036305;28;19924;-63
2021/10/28 01:34:28;;;;;;;;;;;;;;;11.20;76.13;100312.03;5035645;28;19971;-63
2021/10/28 01:37:13;;;;;;;;;;;;;;;11.21;75.75;100312.91;5036820;28;19963;-63
2021/10/28 01:39:57;;;;;;;;;;;;;;;11.21;75.96;100300.81;5037148;28;19939;-63
2021/10/28 01:42:45;;;;;;;;;;;;;;;11.21;75.67;100299.94;5037005;28;20387;-62
2021/10/28 01:45:29;;;;;;;;;;;;;;;11.20;76.11;100293.88;5036885;28;20418;-63
2021/10/28 01:48:19;;;;;;;;;;;;;;;11.19;76.12;100297.31;5037186;28;20425;-63
2021/10/28 01:51:06;;;;;;;;;;;;;;;11.16;75.93;100286.00;5035641;28;20458;-62
2021/10/28 01:53:53;;;;;;;;;;;;;;;11.15;76.25;100290.31;5035789;28;19940;-63
2021/10/28 01:56:38;;;;;;;;;;;;;;;11.15;75.71;100289.44;5037024;28;19923;-62
2021/10/28 01:59:22;;;;;;;;;;;;;;;11.12;75.73;100288.53;5049893;28;19992;-62
2021/10/28 02:02:06;;;;;;;;;;;;;;;11.14;75.66;100285.97;5049733;28;19923;-63
2021/10/28 02:04:50;;;;;;;;;;;;;;;11.15;75.68;100279.94;5049593;28;19924;-63
2021/10/28 02:07:34;;;;;;;;;;;;;;;11.14;75.83;100269.53;5035464;28;19924;-62
2021/10/28 02:10:20;;;;;;;;;;;;;;;11.15;75.96;100271.28;5036398;28;20268;-62
2021/10/28 02:13:05;;;;;;;;;;;;;;;11.12;76.02;100262.59;5034900;28;19947;-63
2021/10/28 02:15:55;;;;;;;;;;;;;;;11.13;75.97;100260.91;5035584;28;20327;-63
2021/10/28 02:18:39;;;;;;;;;;;;;;;11.14;76.10;100251.38;5035070;28;19923;-63
2021/10/28 02:21:23;;;;;;;;;;;;;;;11.12;75.80;100251.38;5035890;28;19924;-63
2021/10/28 02:24:07;;;;;;;;;;;;;;;11.11;76.04;100249.63;5035168;28;19924;-62
2021/10/28 02:26:51;;;;;;;;;;;;;;;11.12;75.96;100253.97;5035684;28;19924;-63
2021/10/28 02:29:36;;;;;;;;;;;;;;;11.08;75.50;100247.81;5035729;28;19928;-62
2021/10/28 02:32:19;;;;;;;;;;;;;;;11.06;75.90;100246.91;5035216;28;19924;-63
2021/10/28 02:35:07;;;;;;;;;;;;;;;11.05;75.38;100246.91;5034699;28;19967;-63
2021/10/28 02:37:51;;;;;;;;;;;;;;;11.05;75.55;100241.72;5034942;28;19924;-63
2021/10/28 02:40:35;;;;;;;;;;;;;;;11.03;75.51;100246.00;5035665;28;19928;-62
2021/10/28 02:43:19;;;;;;;;;;;;;;;11.01;75.51;100242.50;5035427;28;19963;-63
2021/10/28 02:46:03;;;;;;;;;;;;;;;11.00;75.79;100243.34;5035797;28;19924;-63
2021/10/28 02:48:47;;;;;;;;;;;;;;;11.01;75.41;100232.13;5035875;28;19924;-63
2021/10/28 02:51:31;;;;;;;;;;;;;;;11.00;75.62;100230.38;5035722;28;19924;-63
2021/10/28 02:54:21;;;;;;;;;;;;;;;10.98;75.46;100232.09;5034167;28;20016;-62
2021/10/28 02:57:06;;;;;;;;;;;;;;;10.98;75.75;100227.78;5035526;28;19928;-62
2021/10/28 02:59:50;;;;;;;;;;;;;;;10.95;75.61;100228.59;5034034;28;19924;-63
2021/10/28 03:02:35;;;;;;;;;;;;;;;10.94;75.79;100215.59;5035399;28;20015;-63
2021/10/28 03:05:22;;;;;;;;;;;;;;;10.93;75.69;100214.75;5035065;28;19967;-63
2021/10/28 03:08:08;;;;;;;;;;;;;;;10.92;75.69;100213.00;5035677;28;19971;-63
2021/10/28 03:10:55;;;;;;;;;;;;;;;10.91;75.63;100210.34;5034058;28;19982;-62
2021/10/28 03:13:44;;;;;;;;;;;;;;;10.92;75.35;100217.28;5035179;28;19924;-63
2021/10/28 03:28:13;;;;;;;;;;;;;;;10.95;75.80;100194.91;5034753;28;20398;-63
2021/10/28 03:31:07;;;;;;;;;;;;;;;10.97;75.60;100192.31;5033891;28;19924;-63
2021/10/28 03:33:51;;;;;;;;;;;;;;;10.98;75.54;100185.44;5034878;28;20272;-63
2021/10/28 03:37:16;;;;;;;;;;;;;;;10.99;75.57;100185.44;5033929;28;19944;-63
2021/10/28 03:51:37;;;;;;;;;;;;;;;11.00;75.54;100162.94;5034533;28;19924;-63
2021/10/28 04:18:50;;;;;;;;;;;;;;;10.99;75.47;100143.06;5033623;28;19932;-63
2021/10/28 04:21:39;;;;;;;;;;;;;;;10.97;75.84;100143.03;5033638;28;19971;-63
2021/10/28 04:30:35;;;;;;;;;;;;;;;10.94;75.58;100138.69;5034579;28;19924;-63
2021/10/28 04:33:19;;;;;;;;;;;;;;;10.96;75.77;100143.88;5033954;28;20395;-63
2021/10/28 04:36:09;;;;;;;;;;;;;;;10.97;75.70;100137.84;5033751;28;19924;-63
2021/10/28 04:39:02;;;;;;;;;;;;;;;10.94;75.51;100136.09;5032719;28;20340;-63
2021/10/28 04:41:49;;;;;;;;;;;;;;;10.95;75.67;100135.25;5033648;28;19986;-62
2021/10/28 04:44:37;;;;;;;;;;;;;;;10.95;75.54;100132.66;5033974;28;19939;-63
2021/10/28 04:47:24;;;;;;;;;;;;;;;10.95;75.75;100131.78;5033524;28;20051;-62
2021/10/28 04:50:08;;;;;;;;;;;;;;;10.94;76.02;100136.09;5033115;28;20316;-63
2021/10/28 04:52:55;;;;;;;;;;;;;;;10.93;75.49;100130.88;5032615;28;19924;-63
2021/10/28 04:55:42;;;;;;;;;;;;;;;10.95;75.66;100131.78;5032247;28;19970;-63
2021/10/28 04:58:35;;;;;;;;;;;;;;;10.94;75.97;100128.31;5033782;28;19979;-63
2021/10/28 05:01:25;;;;;;;;;;;;;;;10.95;75.47;100124.00;5046821;28;19924;-62
2021/10/28 05:04:12;;;;;;;;;;;;;;;10.92;75.71;100114.44;5033220;28;19924;-63
2021/10/28 05:07:05;;;;;;;;;;;;;;;10.90;75.77;100121.34;5033106;28;19963;-63
2021/10/28 05:09:49;;;;;;;;;;;;;;;10.88;75.65;100116.97;5032792;28;19924;-63
2021/10/28 05:12:38;;;;;;;;;;;;;;;10.86;75.51;100111.75;5032599;28;19940;-63
2021/10/28 05:15:22;;;;;;;;;;;;;;;10.87;75.41;100110.91;5032259;28;19963;-63
2021/10/28 05:18:10;;;;;;;;;;;;;;;10.86;75.86;100108.31;5033526;28;19924;-63
2021/10/28 05:21:02;;;;;;;;;;;;;;;10.82;75.69;100113.44;5032528;28;19924;-64
2021/10/28 05:23:51;;;;;;;;;;;;;;;10.84;75.55;100108.25;5033578;28;20292;-63
2021/10/28 05:26:44;;;;;;;;;;;;;;;10.83;75.84;100114.28;5033472;28;19927;-63
2021/10/28 05:29:39;;;;;;;;;;;;;;;10.82;75.54;100102.19;5033754;28;20375;-61
2021/10/28 05:32:26;;;;;;;;;;;;;;;10.82;75.49;100105.66;5032274;28;19924;-63
2021/10/28 05:35:19;;;;;;;;;;;;;;;10.81;75.95;100098.72;5031706;28;19943;-63
2021/10/28 05:38:10;;;;;;;;;;;;;;;10.80;75.41;100094.38;5031847;28;19923;-63
2021/10/28 05:41:00;;;;;;;;;;;;;;;10.81;75.80;100095.28;5031883;28;19971;-64
2021/10/28 05:43:44;;;;;;;;;;;;;;;10.82;75.64;100089.25;5032614;28;19928;-63
2021/10/28 05:46:28;;;;;;;;;;;;;;;10.82;75.40;100091.84;5033299;28;19923;-63
2021/10/28 05:49:20;;;;;;;;;;;;;;;10.82;75.65;100092.69;5034501;28;20395;-63
2021/10/28 05:52:12;;;;;;;;;;;;;;;10.84;75.77;100094.44;5035818;28;19927;-63
2021/10/28 05:55:04;;;;;;;;;;;;;;;10.86;75.46;100092.75;5035192;28;19924;-63
2021/10/28 05:57:59;;;;;;;;;;;;;;;10.84;75.44;100100.47;5035900;28;20422;-62
2021/10/28 06:00:51;;;;;;;;;;;;;;;10.82;75.57;100102.19;5035937;28;19924;-63
2021/10/28 06:03:46;;;;;;;;;;;;;;;10.80;75.58;100096.97;5035766;28;19935;-63
2021/10/28 06:06:36;;;;;;;;;;;;;;;10.80;75.40;100099.56;5035331;28;19924;-62
2021/10/28 06:09:29;;;;;;;;;;;;;;;10.80;75.81;100089.19;5035545;28;20062;-63
2021/10/28 06:12:15;;;;;;;;;;;;;;;10.78;75.47;100085.69;5049235;28;20292;-62
2021/10/28 06:15:07;;;;;;;;;;;;;;;10.80;75.59;100091.78;5035676;28;19931;-63
2021/10/28 06:18:00;;;;;;;;;;;;;;;10.79;75.49;100096.97;5035335;28;20406;-63
2021/10/28 06:20:51;;;;;;;;;;;;;;;10.78;75.77;100088.28;5036173;28;19927;-63
2021/10/28 06:23:43;;;;;;;;;;;;;;;10.78;75.38;100092.63;5034815;28;20398;-62
2021/10/28 06:26:33;;;;;;;;;;;;;;;10.77;75.78;100090.88;5035356;28;19923;-63
2021/10/28 06:29:26;;;;;;;;;;;;;;;10.76;75.65;100094.31;5035078;28;19924;-63
2021/10/28 06:32:14;;;;;;;;;;;;;;;10.74;75.41;100099.50;5049312;28;19962;-62
2021/10/28 06:35:05;;;;;;;;;;;;;;;10.73;75.61;100096.84;5035045;28;19924;-63
2021/10/28 06:37:50;;;;;;;;;;;;;;;10.72;75.75;100089.91;5035245;28;19923;-62
2021/10/28 06:40:39;;;;;;;;;;;;;;;10.73;75.58;100096.84;5035647;28;20390;-63
2021/10/28 06:43:30;;;;;;;;;;;;;;;10.72;75.32;100087.31;5034952;28;19975;-63
2021/10/28 06:46:20;;;;;;;;;;;;;;;10.71;75.37;100088.16;5034526;28;20018;-63
2021/10/28 06:49:10;;;;;;;;;;;;;;;10.70;75.31;100086.44;5034378;28;20355;-63
2021/10/28 06:52:05;;;;;;;;;;;;;;;10.71;75.40;100088.16;5036015;28;19924;-62
2021/10/28 06:55:04;;;;;;;;;;;;;;;10.69;75.30;100088.16;5034652;28;19924;-62
2021/10/28 07:02:15;;;;;;;;;;;;;;;10.68;75.41;100085.53;5034621;28;19959;-63
2021/10/28 07:04:09;;;;;;;;;;;;;;;10.64;75.52;100093.28;5035476;28;20395;-63
2021/10/28 07:06:59;;;;;;;;;;;;;;;10.63;75.48;100093.22;5035435;28;19923;-62
2021/10/28 07:09:58;;;;;;;;;;;;;;;10.63;75.28;100091.53;5034319;28;20367;-63
2021/10/28 07:13:05;;;;;;;;;;;;;;;10.64;75.78;100094.97;5035215;28;20020;-63
2021/10/28 07:15:59;;;;;;;;;;;;;;;10.64;75.28;100098.47;5034188;28;19924;-63
2021/10/28 07:19:01;;;;;;;;;;;;;;;10.63;75.39;100093.22;5034223;28;19991;-63
2021/10/28 07:28:11;;;;;;;;;;;;;;;10.64;75.66;100103.66;5034534;28;19923;-62
2021/10/28 08:17:08;;;;;;;;;;;;;;;10.71;75.70;100057.97;5034091;28;19924;-63
2021/10/28 08:20:04;;;;;;;;;;;;;;;10.72;75.67;100059.69;5033733;28;20304;-63
2021/10/28 08:23:34;;;;;;;;;;;;;;;10.72;75.51;100064.88;5033525;28;19943;-62
2021/10/28 08:29:21;;;;;;;;;;;;;;;10.76;75.61;100050.25;5034219;28;19963;-63
2021/10/28 08:32:06;;;;;;;;;;;;;;;10.76;75.29;100048.50;5033093;28;19971;-63
2021/10/28 08:34:51;;;;;;;;;;;;;;;10.78;75.35;100048.56;5033907;28;20012;-63
2021/10/28 08:37:43;;;;;;;;;;;;;;;10.79;75.56;100053.75;5033570;28;19979;-63
2021/10/28 08:40:35;;;;;;;;;;;;;;;10.81;75.57;100054.66;5032881;28;19967;-63
2021/10/28 08:43:28;;;;;;;;;;;;;;;10.82;75.51;100042.56;5033097;28;19987;-63
2021/10/28 08:46:21;;;;;;;;;;;;;;;10.85;75.46;100032.22;5032941;28;19932;-63
2021/10/28 08:49:56;;;;;;;;;;;;;;;10.84;75.29;100024.44;5033005;28;20403;-63
2021/10/28 08:52:41;;;;;;;;;;;;;;;10.86;75.42;100021.00;5032305;28;19924;-63
2021/10/28 08:55:42;;;;;;;;;;;;;;;10.86;75.41;100013.22;5032501;28;19974;-64
2021/10/28 09:23:55;;;;;;;;;;;;;;;11.11;75.50;100006.66;5035034;28;19948;-63
2021/10/28 09:26:54;;;;;;;;;;;;;;;11.17;75.48;99999.81;5036378;28;19924;-64
2021/10/28 09:32:54;;;;;;;;;;;;;;;11.23;75.18;99985.19;5037079;28;19928;-63
2021/10/28 09:45:18;;;;;;;;;;;;;;;11.37;75.36;99985.34;5037131;28;20446;-63
2021/10/28 09:48:23;;;;;;;;;;;;;;;11.42;75.25;99975.91;5035664;28;19923;-63
2021/10/28 09:51:07;;;;;;;;;;;;;;;11.46;75.41;99976.81;5035985;28;20343;-63
2021/10/28 09:54:04;;;;;;;;;;;;;;;11.47;75.11;99975.94;5036053;28;19924;-63
2021/10/28 10:00:02;;;;;;;;;;;;;;;11.49;75.01;99976.84;5036627;28;19924;-63
2021/10/28 10:02:57;;;;;;;;;;;;;;;11.52;75.19;99971.69;5035193;28;19963;-63
2021/10/28 10:09:10;;;;;;;;;;;;;;;11.61;75.03;99981.31;5032450;28;20284;-63
2021/10/28 10:11:57;;;;;;;;;;;;;;;11.64;75.02;99980.44;5036598;28;19924;-63
2021/10/28 10:14:46;;;;;;;;;;;;;;;11.67;75.05;99990.88;5035417;28;19924;-63
2021/10/28 10:17:33;;;;;;;;;;;;;;;11.69;74.92;99982.25;5035061;28;19967;-63
2021/10/28 10:20:19;;;;;;;;;;;;;;;11.72;74.85;99978.81;5035624;28;19970;-63
2021/10/28 11:15:43;;;;;;;;;;;;;;;12.03;74.79;99938.44;5035348;28;19971;-63
2021/10/28 12:23:38;;;;;;;;;;;;;;;12.49;74.23;99841.75;4992785;28;20411;-61
2021/10/28 12:45:30;;;;;;;;;;;;;;;12.53;73.95;99800.19;5033317;28;19924;-61
2021/10/28 14:37:23;;;;;;;;;;;;;;;12.70;73.23;99715.28;5035532;28;19967;-63
2021/10/28 15:01:32;;;;;;;;;;;;;;;12.70;73.18;99678.88;5035802;28;19923;-63
2021/10/28 15:28:44;;;;;;;;;;;;;;;12.67;72.80;99678.03;5035263;28;20285;-63
2021/10/28 15:40:02;;;;;;;;;;;;;;;12.64;72.87;99668.50;5034845;28;19924;-63
2021/10/28 16:21:54;;;;;;;;;;;;;;;12.59;72.88;99634.69;5033859;28;20438;-63
2021/10/28 16:24:41;;;;;;;;;;;;;;;12.59;72.99;99634.69;5047544;28;19924;-63
2021/10/28 16:27:28;;;;;;;;;;;;;;;12.58;73.09;99632.09;5032868;28;19924;-63
2021/10/28 16:30:21;;;;;;;;;;;;;;;12.57;72.83;99628.63;5033851;28;19970;-63
2021/10/28 16:33:11;;;;;;;;;;;;;;;12.58;73.01;99626.88;5046896;28;20007;-63
2021/10/28 16:36:01;;;;;;;;;;;;;;;12.57;73.02;99631.22;5032358;28;19924;-63
2021/10/28 16:38:51;;;;;;;;;;;;;;;12.57;73.14;99623.44;5046855;28;19924;-63
2021/10/28 16:41:41;;;;;;;;;;;;;;;12.54;72.92;99620.81;5033775;28;19924;-63
2021/10/28 16:44:25;;;;;;;;;;;;;;;12.53;73.00;99633.84;5032919;28;19931;-63
2021/10/28 16:47:10;;;;;;;;;;;;;;;12.53;72.99;99631.22;5033943;28;19923;-63
2021/10/28 16:49:58;;;;;;;;;;;;;;;12.52;73.06;99632.09;5034150;28;19924;-63
2021/10/28 16:52:48;;;;;;;;;;;;;;;12.51;72.91;99630.34;5032613;28;19928;-63
2021/10/28 16:55:41;;;;;;;;;;;;;;;12.51;72.94;99630.34;5032824;28;19923;-63
2021/10/28 16:58:33;;;;;;;;;;;;;;;12.50;73.12;99634.66;5032992;28;19967;-63
2021/10/28 17:01:39;;;;;;;;;;;;;;;12.47;72.97;99626.88;5033120;28;20243;-63
2021/10/28 17:04:25;;;;;;;;;;;;;;;12.47;73.11;99625.16;5032935;28;19940;-63
2021/10/28 17:07:12;;;;;;;;;;;;;;;12.46;73.00;99623.41;5032620;28;19947;-63
2021/10/28 17:10:00;;;;;;;;;;;;;;;12.47;73.03;99621.66;5032663;28;19924;-63
2021/10/28 17:12:47;;;;;;;;;;;;;;;12.44;73.27;99617.34;5032715;28;20303;-62
2021/10/28 17:15:39;;;;;;;;;;;;;;;12.45;73.30;99613.03;5033073;28;19982;-63
2021/10/28 17:18:26;;;;;;;;;;;;;;;12.42;73.19;99611.28;5032874;28;20432;-63
2021/10/28 17:21:19;;;;;;;;;;;;;;;12.43;73.30;99604.34;5033612;28;19942;-63
2021/10/28 17:24:09;;;;;;;;;;;;;;;12.42;73.17;99605.22;5032256;28;20414;-63
2021/10/28 17:26:56;;;;;;;;;;;;;;;12.43;73.14;99604.34;5032469;28;20421;-63
2021/10/28 17:29:46;;;;;;;;;;;;;;;12.41;73.25;99611.28;5032501;28;19971;-63
2021/10/28 17:32:40;;;;;;;;;;;;;;;12.40;72.98;99605.19;5032040;28;19924;-63
2021/10/28 17:35:32;;;;;;;;;;;;;;;12.40;72.97;99599.16;5033233;28;20371;-63
2021/10/28 17:38:16;;;;;;;;;;;;;;;12.40;73.12;99593.94;5032464;28;19924;-63
2021/10/28 17:41:06;;;;;;;;;;;;;;;12.39;72.88;99592.22;5033330;28;20379;-63
2021/10/28 17:43:57;;;;;;;;;;;;;;;12.38;73.04;99590.47;5033382;28;19971;-63
2021/10/28 17:46:52;;;;;;;;;;;;;;;12.36;73.02;99598.28;5037220;28;19924;-63
2021/10/28 17:49:44;;;;;;;;;;;;;;;12.36;72.85;99582.69;5035872;28;19963;-63
2021/10/28 17:52:37;;;;;;;;;;;;;;;12.34;72.78;99587.88;5035343;28;19987;-63
2021/10/28 17:55:26;;;;;;;;;;;;;;;12.34;72.74;99585.28;5035657;28;19924;-63
2021/10/28 17:58:14;;;;;;;;;;;;;;;12.34;73.00;99574.03;5035875;28;20336;-63
2021/10/28 18:01:06;;;;;;;;;;;;;;;12.32;72.74;99576.59;5035984;28;19971;-63
2021/10/28 18:03:59;;;;;;;;;;;;;;;12.31;72.76;99582.66;5035399;28;19924;-63
2021/10/28 18:06:43;;;;;;;;;;;;;;;12.30;72.66;99562.75;5036250;28;20012;-63
2021/10/28 18:09:30;;;;;;;;;;;;;;;12.29;72.85;99573.13;5036831;28;19990;-63
2021/10/28 18:12:20;;;;;;;;;;;;;;;12.28;72.68;99561.00;5035637;28;19924;-63
2021/10/28 18:15:09;;;;;;;;;;;;;;;12.26;72.76;99563.63;5034870;28;19924;-63
2021/10/28 18:18:02;;;;;;;;;;;;;;;12.23;72.65;99558.41;5035302;28;19924;-63
2021/10/28 18:20:54;;;;;;;;;;;;;;;12.23;72.58;99555.81;5035336;28;20395;-63
2021/10/28 18:23:48;;;;;;;;;;;;;;;12.21;72.92;99551.50;5035447;28;19924;-63
2021/10/28 18:26:40;;;;;;;;;;;;;;;12.20;72.58;99554.97;5034767;28;19924;-63
2021/10/28 18:29:30;;;;;;;;;;;;;;;12.18;72.66;99548.03;5035329;28;19924;-63
2021/10/28 18:32:14;;;;;;;;;;;;;;;12.17;72.58;99548.00;5035422;28;19924;-63
2021/10/28 18:34:58;;;;;;;;;;;;;;;12.15;72.61;99542.81;5036064;28;20287;-62
2021/10/28 18:37:49;;;;;;;;;;;;;;;12.15;72.54;99542.81;5035916;28;19932;-63
2021/10/28 18:40:42;;;;;;;;;;;;;;;12.14;72.56;99554.06;5034965;28;19923;-63
2021/10/28 18:43:34;;;;;;;;;;;;;;;12.12;72.70;99540.22;5034373;28;19924;-63
2021/10/28 18:46:24;;;;;;;;;;;;;;;12.10;72.30;99541.94;5035041;28;19924;-63
2021/10/28 18:49:14;;;;;;;;;;;;;;;12.10;72.65;99539.34;5034641;28;19924;-63
2021/10/28 18:52:02;;;;;;;;;;;;;;;12.08;72.58;99532.41;5035516;28;19924;-63
2021/10/28 18:54:55;;;;;;;;;;;;;;;12.07;72.40;99530.69;5034451;28;19970;-63
2021/10/28 18:57:48;;;;;;;;;;;;;;;12.06;72.35;99523.75;5034725;28;19984;-63
2021/10/28 19:03:16;;;;;;;;;;;;;;;12.03;72.73;99525.47;5154013;22;19967;-63
2021/10/28 19:06:02;;;;;;;;;;;;;;;12.01;72.49;99522.00;5014557;28;19963;-63
2021/10/28 19:08:46;;;;;;;;;;;;;;;12.01;72.49;99524.59;5015396;28;19976;-63
2021/10/28 19:11:39;;;;;;;;;;;;;;;12.00;72.27;99515.06;5015438;28;19924;-63
2021/10/28 19:14:28;;;;;;;;;;;;;;;11.99;71.94;99513.34;5014022;28;19923;-63
2021/10/28 19:17:19;;;;;;;;;;;;;;;11.99;72.31;99505.53;5014760;28;19925;-63
2021/10/28 19:20:09;;;;;;;;;;;;;;;11.98;72.39;99511.63;5014751;28;19924;-63
2021/10/28 19:22:58;;;;;;;;;;;;;;;11.97;72.42;99499.47;5014473;28;19975;-63
2021/10/28 19:25:53;;;;;;;;;;;;;;;11.97;71.99;99503.78;5014434;28;19924;-63
2021/10/28 19:28:42;;;;;;;;;;;;;;;11.96;72.30;99494.25;5014829;28;19968;-63
2021/10/28 19:31:34;;;;;;;;;;;;;;;11.96;72.08;99489.06;5014212;28;19923;-63
2021/10/28 19:34:25;;;;;;;;;;;;;;;11.95;72.21;99511.59;5013858;28;20324;-63
2021/10/28 19:37:36;;;;;;;;;;;;;;;11.94;72.01;99483.88;5013692;28;19948;-63
2021/10/28 19:46:24;;;;;;;;;;;;;;;11.93;71.96;99486.47;5014898;28;19923;-63
2021/10/28 19:49:20;;;;;;;;;;;;;;;11.92;72.08;99482.13;5014835;28;19924;-63
2021/10/28 19:52:12;;;;;;;;;;;;;;;11.91;71.83;99483.88;5015021;28;20391;-63
2021/10/28 19:55:07;;;;;;;;;;;;;;;11.90;71.92;99483.88;5013722;28;19924;-63
2021/10/28 19:57:59;;;;;;;;;;;;;;;11.89;71.66;99483.00;5013654;28;20367;-63
2021/10/28 20:00:56;;;;;;;;;;;;;;;11.88;71.75;99484.75;5014307;28;20388;-63
2021/10/28 20:04:07;;;;;;;;;;;;;;;11.88;71.93;99499.44;5014246;28;19923;-63
2021/10/28 20:13:36;;;;;;;;;;;;;;;11.85;71.58;99484.75;5000676;28;19940;-63
2021/10/28 20:22:24;;;;;;;;;;;;;;;11.84;71.48;99482.13;5013650;28;20365;-63
2021/10/28 20:24:57;;;;;;;;;;;;;;;11.84;71.63;99474.31;4996490;28;19917;-63
2021/10/28 20:27:29;;;;;;;;;;;;;;;11.84;71.68;99479.53;5013800;28;19917;-63
2021/10/28 20:30:04;;;;;;;;;;;;;;;11.83;71.84;99472.63;5013400;28;19924;-63
2021/10/28 20:32:38;;;;;;;;;;;;;;;11.83;71.83;99468.28;5014508;28;19917;-63
2021/10/28 20:37:58;;;;;;;;;;;;;;;11.83;71.87;99454.44;5012771;28;19925;-63
2021/10/28 20:40:30;;;;;;;;;;;;;;;11.83;71.74;99463.09;5013253;28;20344;-63
2021/10/28 20:43:04;;;;;;;;;;;;;;;11.83;71.79;99457.06;5013165;28;19917;-63
2021/10/28 20:45:37;;;;;;;;;;;;;;;11.81;71.50;99451.84;5012877;28;19940;-63
2021/10/28 20:48:11;;;;;;;;;;;;;;;11.81;71.81;99462.22;5013405;28;20339;-63
2021/10/28 20:50:44;;;;;;;;;;;;;;;11.80;71.53;99467.41;4996551;28;19922;-63
2021/10/28 20:53:15;;;;;;;;;;;;;;;11.79;71.34;99466.53;5013168;28;19917;-63
2021/10/28 20:55:48;;;;;;;;;;;;;;;11.78;71.69;99470.00;5013026;28;19917;-63
2021/10/28 20:58:22;;;;;;;;;;;;;;;11.77;71.75;99470.00;4996133;28;20343;-63
2021/10/28 21:00:55;;;;;;;;;;;;;;;11.77;71.59;99467.41;5012566;28;19923;-63
2021/10/28 21:03:26;;;;;;;;;;;;;;;11.77;71.42;99464.81;4995920;28;19917;-63
2021/10/28 21:05:57;;;;;;;;;;;;;;;11.77;71.46;99463.06;4996275;28;19917;-63
2021/10/28 21:08:29;;;;;;;;;;;;;;;11.78;71.69;99463.94;5012972;28;19924;-63
2021/10/28 21:10:55;;;;;;;;;;;;;;;11.76;71.48;99461.34;4996616;28;19917;-63
2021/10/28 21:13:24;;;;;;;;;;;;;;;11.76;71.19;99463.94;5012693;28;19924;-63
2021/10/28 21:16:00;;;;;;;;;;;;;;;11.75;71.08;99464.81;5013578;28;20334;-63
2021/10/28 21:18:28;;;;;;;;;;;;;;;11.75;70.96;99467.41;4996348;28;20015;-63
2021/10/28 21:21:08;;;;;;;;;;;;;;;11.76;71.01;99468.28;5016753;28;20360;-63
2021/10/28 21:23:41;;;;;;;;;;;;;;;11.74;71.00;99457.91;5016578;28;19917;-63
2021/10/28 21:26:17;;;;;;;;;;;;;;;11.75;71.03;99470.00;5016121;28;19921;-63
2021/10/28 21:28:51;;;;;;;;;;;;;;;11.74;71.07;99457.91;5016601;28;19922;-63
2021/10/28 21:31:16;;;;;;;;;;;;;;;11.75;70.82;99450.97;5000347;28;19921;-63
2021/10/28 21:33:42;;;;;;;;;;;;;;;11.74;70.98;99455.31;5032710;28;19940;-63
2021/10/28 21:36:07;;;;;;;;;;;;;;;11.73;71.14;99456.16;5017079;28;20288;-63
2021/10/28 21:38:38;;;;;;;;;;;;;;;11.74;71.28;99447.50;5017624;28;19923;-63
2021/10/28 21:41:09;;;;;;;;;;;;;;;11.75;71.12;99453.56;5000262;28;19917;-63
2021/10/28 21:43:35;;;;;;;;;;;;;;;11.75;70.69;99449.25;5000019;28;19917;-63
2021/10/28 21:46:06;;;;;;;;;;;;;;;11.75;71.09;99450.97;5016890;28;20007;-63
2021/10/28 21:48:37;;;;;;;;;;;;;;;11.76;71.26;99447.50;4999629;28;19917;-63
2021/10/28 21:51:11;;;;;;;;;;;;;;;11.76;71.02;99455.28;4999805;28;19917;-63
2021/10/28 21:53:47;;;;;;;;;;;;;;;11.76;70.62;99444.91;5016173;28;19917;-63
2021/10/28 22:01:53;;;;;;;;;;;;;;;11.75;71.14;99445.78;5015457;28;19917;-63
2021/10/28 22:04:42;;;;;;;;;;;;;;;11.75;70.74;99441.47;4999850;28;19960;-63
2021/10/28 22:24:07;;;;;;;;;;;;;;;11.73;71.00;99444.03;5017080;28;19921;-63
2021/10/28 22:24:14;;;;;;;;;;;;;;;11.70;70.47;99445.78;4995236;28;20062;-63
2021/10/28 22:26:48;;;;;;;;;;;;;;;11.70;70.88;99444.03;5016439;28;19917;-63
2021/10/28 22:29:19;;;;;;;;;;;;;;;11.69;70.56;99442.28;4999318;28;19917;-62
2021/10/28 22:31:48;;;;;;;;;;;;;;;11.69;70.63;99451.81;4997974;28;19929;-63
2021/10/28 22:34:19;;;;;;;;;;;;;;;11.68;70.72;99439.69;4998464;28;19944;-63
2021/10/28 22:37:05;;;;;;;;;;;;;;;11.68;70.75;99450.09;5015136;28;20019;-63
2021/10/28 22:39:50;;;;;;;;;;;;;;;11.66;70.48;99437.13;4998649;28;19924;-63
2021/10/28 22:42:19;;;;;;;;;;;;;;;11.66;70.29;99426.72;5014828;28;19924;-63
2021/10/28 22:44:51;;;;;;;;;;;;;;;11.67;70.87;99433.66;4998640;28;19928;-63
2021/10/28 22:47:19;;;;;;;;;;;;;;;11.66;70.71;99425.84;5014780;28;19992;-63
2021/10/28 22:49:53;;;;;;;;;;;;;;;11.65;70.39;99424.13;5014860;28;19995;-63
2021/10/28 22:52:27;;;;;;;;;;;;;;;11.65;70.41;99418.94;4998318;28;19917;-63
2021/10/28 22:55:04;;;;;;;;;;;;;;;11.65;70.80;99417.22;5014647;28;19917;-63
2021/10/28 22:57:51;;;;;;;;;;;;;;;11.65;70.69;99406.84;5015977;28;19961;-63
2021/10/28 23:00:22;;;;;;;;;;;;;;;11.66;70.75;99407.69;4998138;28;19949;-63
2021/10/28 23:03:05;;;;;;;;;;;;;;;11.65;70.87;99404.22;4998166;28;19917;-63
2021/10/28 23:22:24;;;;;;;;;;;;;;;11.63;70.62;99392.97;5014086;28;20012;-63
2021/10/28 23:24:54;;;;;;;;;;;;;;;11.63;70.02;99397.28;4997546;28;19973;-63
2021/10/28 23:27:28;;;;;;;;;;;;;;;11.63;70.32;99385.19;4997671;28;19967;-63
2021/10/28 23:30:02;;;;;;;;;;;;;;;11.62;70.56;99379.97;5013926;28;20292;-63
2021/10/28 23:32:35;;;;;;;;;;;;;;;11.61;70.42;99381.72;5014096;28;20436;-63
2021/10/28 23:35:06;;;;;;;;;;;;;;;11.62;70.09;99387.78;4997859;28;20351;-63
2021/10/28 23:37:37;;;;;;;;;;;;;;;11.61;70.09;99379.13;5014272;28;19998;-63
2021/10/28 23:40:08;;;;;;;;;;;;;;;11.59;70.44;99383.44;5014124;28;19917;-63
2021/10/28 23:42:40;;;;;;;;;;;;;;;11.62;70.41;99382.56;4997328;28;20324;-63
2021/10/28 23:45:10;;;;;;;;;;;;;;;11.61;70.19;99386.91;5014046;28;19917;-63
2021/10/28 23:47:39;;;;;;;;;;;;;;;11.60;70.32;99385.19;4997644;28;19917;-63
2021/10/28 23:50:11;;;;;;;;;;;;;;;11.60;69.95;99380.00;5013705;28;20372;-63